Latest Weather Observations for Jervois

IDD60801

Issued at 11:11 pm CST Sunday 17 February 2019 (issued every 10 minutes, with the page automatically refreshed every 10 minutes)

About weather observations | Map of weather stations | Latest weather observations for NT | Other Formats
Station Details ID: 015602 Name: JERVOIS Lat: -22.95 Lon: 136.14 Height: 328.0 m
Data from the previous 72 hours. | See also: Recent months at Jervois
Date/Time
CST
Temp
°C
App
Temp
°C
Dew
Point
°C
Rel
Hum
%
Delta-T
°C
Wind Press
QNH
hPa
Press
MSL
hPa
Rain since
9am
mm
Dir  Spd
km/h
Gust
km/h
Spd
kts
Gust
kts
17/11:00pm 26.0 22.2 -5.6 12 13.5 S 6 7 3 4 1009.9 - 0.0
17/10:30pm 27.4 23.7 -4.5 12 14.0 S 6 7 3 4 1009.7 - 0.0
17/10:00pm 28.1 24.2 -5.1 11 14.5 S 7 9 4 5 1009.6 - 0.0
17/09:30pm 29.8 25.6 -3.8 11 15.2 SSE 9 9 5 5 1009.3 - 0.0
17/09:00pm 30.4 26.5 -4.6 10 15.8 SE 7 9 4 5 1009.1 1006.7 0.0
17/08:30pm 30.8 26.8 -5.7 9 16.1 SSE 7 9 4 5 1008.8 - 0.0
17/08:00pm 33.4 29.4 -5.3 8 17.6 SE 7 9 4 5 1008.6 - 0.0
17/07:30pm 34.9 31.2 -4.2 8 18.3 SSE 6 9 3 5 1008.4 - 0.0
17/07:00pm 36.7 32.4 -4.7 7 19.5 S 9 15 5 8 1008.0 - 0.0
17/06:30pm 38.1 34.1 -5.7 6 20.5 SE 7 15 4 8 1007.7 - 0.0
17/06:00pm 38.6 34.8 -5.3 6 20.8 SSE 6 13 3 7 1007.6 1005.2 0.0
17/05:30pm 39.4 35.7 -4.8 6 21.1 WSW 6 13 3 7 1007.4 - 0.0
17/05:00pm 39.6 35.9 -4.6 6 21.2 W 6 17 3 9 1007.4 - 0.0
17/04:30pm 39.3 34.2 -4.8 6 21.1 SSE 13 22 7 12 1007.5 - 0.0
17/04:00pm 39.3 34.6 -4.8 6 21.1 S 11 15 6 8 1007.6 - 0.0
17/03:30pm 40.1 35.5 -4.3 6 21.5 SSE 11 20 6 11 1008.1 - 0.0
17/03:00pm 39.0 34.5 -3.0 7 20.6 N 11 19 6 10 1008.5 1006.1 0.0
17/02:30pm 39.0 34.5 -3.0 7 20.6 WSW 11 26 6 14 1008.8 - 0.0
17/02:00pm 38.9 35.2 -3.1 7 20.5 WSW 7 15 4 8 1009.4 - 0.0
17/01:30pm 38.8 35.3 -3.2 7 20.5 ENE 6 17 3 9 1010.1 - 0.0
17/01:00pm 38.1 34.7 -1.9 8 19.8 W 6 13 3 7 1010.6 - 0.0
17/12:30pm 37.7 33.3 -2.2 8 19.6 SW 11 24 6 13 1011.3 - 0.0
17/12:00pm 37.0 33.5 -2.7 8 19.3 WSW 6 11 3 6 1011.8 1009.4 0.0
17/11:30am 36.4 32.1 -1.5 9 18.7 SSE 11 22 6 12 1012.4 - 0.0
17/11:00am 36.3 32.0 -1.6 9 18.7 SE 11 20 6 11 1012.9 - 0.0
17/10:30am 35.3 29.8 -2.3 9 18.2 ESE 17 26 9 14 1013.3 - 0.0
17/10:00am 34.7 29.5 -2.8 9 17.9 ESE 15 20 8 11 1013.5 - 0.0
17/09:30am 32.9 27.9 -4.1 9 17.1 ESE 13 20 7 11 1013.8 - 0.0
17/09:00am 31.2 26.6 -4.0 10 16.1 ESE 11 15 6 8 1013.7 1011.4 0.0
17/08:30am 29.4 25.6 -4.1 11 15.1 SSE 7 13 4 7 1013.7 - 0.0
17/08:00am 26.9 23.1 -6.0 11 14.0 WSW 6 9 3 5 1013.7 - 0.0
17/07:30am 24.4 20.4 -5.8 13 12.6 WSW 7 11 4 6 1013.4 - 0.0
17/07:00am 23.1 19.0 -6.8 13 12.1 W 7 11 4 6 1013.2 - 0.0
17/06:30am 21.6 17.1 -7.0 14 11.4 W 9 13 5 7 1012.8 - 0.0
17/06:00am 21.7 17.2 -6.9 14 11.4 W 9 13 5 7 1012.5 1010.1 0.0
17/05:30am 21.9 17.8 -6.8 14 11.5 W 7 11 4 6 1012.2 - 0.0
17/05:00am 22.1 17.6 -6.6 14 11.5 W 9 11 5 6 1012.1 - 0.0
17/04:30am 22.5 18.1 -6.3 14 11.7 W 9 13 5 7 1011.8 - 0.0
17/04:00am 22.4 17.9 -6.4 14 11.7 W 9 13 5 7 1011.7 - 0.0
17/03:30am 22.7 18.3 -6.1 14 11.8 WSW 9 13 5 7 1011.7 - 0.0
17/03:00am 23.0 18.6 -5.9 14 11.9 WSW 9 11 5 6 1011.8 1009.4 0.0
17/02:30am 23.0 18.5 -6.9 13 12.1 SW 9 11 5 6 1011.9 - 0.0
17/02:00am 24.1 20.1 -6.0 13 12.5 SW 7 11 4 6 1011.9 - 0.0
17/01:30am 24.1 19.7 -6.0 13 12.5 SW 9 11 5 6 1012.1 - 0.0
17/01:00am 24.4 20.3 -6.8 12 12.8 SW 7 11 4 6 1012.5 - 0.0
17/12:30am 24.8 20.7 -6.5 12 12.9 SSW 7 9 4 5 1012.5 - 0.0
17/12:00am 25.0 20.9 -6.3 12 13.0 SSW 7 11 4 6 1012.7 1010.3 0.0
 
Date/Time
CST
Temp
°C
App
Temp
°C
Dew
Point
°C
Rel
Hum
%
Delta-T
°C
Wind Press
QNH
hPa
Press
MSL
hPa
Rain since
9am
mm
Dir  Spd
km/h
Gust
km/h
Spd
kts
Gust
kts
16/11:30pm 25.4 21.4 -6.0 12 13.2 SSW 7 11 4 6 1012.9 - 0.0
16/11:00pm 26.0 21.9 -6.7 11 13.6 SSW 7 11 4 6 1013.0 - 0.0
16/10:30pm 26.8 22.8 -6.1 11 14.0 SSW 7 9 4 5 1012.8 - 0.0
16/10:00pm 27.9 23.8 -6.5 10 14.6 S 7 9 4 5 1012.6 - 0.0
16/09:30pm 28.4 24.5 -6.1 10 14.8 S 6 7 3 4 1012.4 - 0.0
16/09:00pm 28.9 24.8 -7.1 9 15.3 S 7 11 4 6 1012.2 1009.8 0.0
16/08:30pm 30.2 26.3 -6.1 9 15.9 S 6 9 3 5 1012.2 - 0.0
16/08:00pm 31.2 27.1 -6.9 8 16.6 S 7 7 4 4 1012.1 - 0.0
16/07:30pm 32.9 28.3 -7.4 7 17.6 SSE 9 15 5 8 1011.9 - 0.0
16/07:00pm 34.3 28.9 -8.4 6 18.6 SSE 13 22 7 12 1011.3 - 0.0
16/06:30pm 35.4 29.7 -7.6 6 19.1 S 15 24 8 13 1011.1 - 0.0
16/06:00pm 35.8 29.7 -7.3 6 19.3 SSE 17 24 9 13 1010.9 1008.6 0.0
16/05:30pm 36.3 30.1 -9.3 5 19.9 SSE 17 30 9 16 1010.9 - 0.0
16/05:00pm 37.1 31.7 -8.7 5 20.3 SE 13 24 7 13 1010.9 - 0.0
16/04:30pm 36.7 31.3 -9.0 5 20.1 SSE 13 24 7 13 1011.1 - 0.0
16/04:00pm 37.0 31.6 -8.8 5 20.2 S 13 28 7 15 1011.3 - 0.0
16/03:30pm 36.3 31.2 -9.3 5 19.9 ESE 11 28 6 15 1011.6 - 0.0
16/03:00pm 36.4 30.6 -9.2 5 19.9 SSE 15 26 8 14 1011.9 1009.5 0.0
16/02:30pm 36.0 30.9 -9.5 5 19.7 SSE 11 24 6 13 1012.3 - 0.0
16/02:00pm 35.4 29.9 -9.9 5 19.4 ENE 13 20 7 11 1012.7 - 0.0
16/01:30pm 35.6 29.0 -9.8 5 19.5 ESE 19 24 10 13 1013.5 - 0.0
16/01:00pm 35.5 30.9 -7.5 6 19.2 NE 9 20 5 11 1014.0 - 0.0
16/12:30pm 34.8 28.3 -8.0 6 18.8 SSE 19 37 10 20 1014.4 - 0.0
16/12:00pm 34.4 30.2 -8.3 6 18.6 E 7 19 4 10 1015.1 1012.7 0.0
16/11:30am 33.1 27.4 -7.3 7 17.7 SSE 15 26 8 14 1015.6 - 0.0
16/11:00am 32.5 27.5 -7.7 7 17.4 E 11 24 6 13 1016.1 - 0.0
16/10:30am 32.0 25.9 -8.1 7 17.2 ESE 17 28 9 15 1016.3 - 0.0
16/10:00am 31.4 24.8 -6.8 8 16.7 ESE 20 30 11 16 1016.6 - 0.0
16/09:30am 30.4 23.9 -6.0 9 16.0 ESE 20 32 11 17 1016.5 - 0.0
16/09:00am 29.0 22.7 -5.7 10 15.1 SE 19 32 10 17 1016.8 - 0.0
16/08:30am 27.7 21.3 -6.6 10 14.5 SSE 19 26 10 14 1016.7 - 0.0
16/08:00am 25.6 20.3 -7.0 11 13.5 SSE 13 20 7 11 1016.7 - 0.0
16/07:30am 23.1 18.5 -7.8 12 12.3 S 9 13 5 7 1016.5 - 0.0
16/07:00am 20.9 16.7 -7.6 14 11.1 S 7 13 4 7 1016.2 - 0.0
16/06:30am 18.7 14.5 -7.6 16 10.0 S 7 11 4 6 1015.8 - 0.0
16/06:00am 18.0 13.4 -8.2 16 9.8 S 9 13 5 7 1015.6 - 0.0
16/05:00am 18.2 13.6 -8.0 16 9.8 SSW 9 11 5 6 1015.3 - 0.0
16/04:30am 18.1 13.9 -8.1 16 9.8 S 7 9 4 5 1015.1 - 0.0
16/04:00am 18.7 14.4 -8.4 15 10.1 S 7 9 4 5 1015.0 - 0.0
16/03:30am 19.0 14.8 -8.2 15 10.3 S 7 9 4 5 1015.1 - 0.0
16/03:00am 20.1 15.9 -8.2 14 10.8 S 7 9 4 5 1015.5 - 0.0
16/02:30am 20.7 16.4 -8.7 13 11.2 S 7 9 4 5 1015.6 - 0.0
16/02:00am 21.4 17.2 -8.1 13 11.4 S 7 11 4 6 1015.8 - 0.0
16/01:30am 22.0 17.7 -8.7 12 11.8 SSE 7 11 4 6 1016.1 - 0.0
16/01:00am 22.1 17.8 -8.6 12 11.9 S 7 11 4 6 1016.3 - 0.0
16/12:30am 22.8 18.1 -9.2 11 12.3 S 9 11 5 6 1016.5 - 0.0
16/12:00am 23.2 18.9 -8.9 11 12.5 S 7 11 4 6 1016.7 - 0.0
 
Date/Time
CST
Temp
°C
App
Temp
°C
Dew
Point
°C
Rel
Hum
%
Delta-T
°C
Wind Press
QNH
hPa
Press
MSL
hPa
Rain since
9am
mm
Dir  Spd
km/h
Gust
km/h
Spd
kts
Gust
kts
15/11:30pm 23.7 19.1 -8.5 11 12.7 S 9 13 5 7 1016.7 - 0.0
15/11:00pm 23.9 19.6 -9.5 10 12.9 S 7 11 4 6 1016.9 - 0.0
15/10:30pm 24.9 20.2 -8.8 10 13.4 S 9 11 5 6 1017.0 - 0.0
15/10:00pm 25.3 20.6 -9.8 9 13.7 S 9 11 5 6 1016.9 - 0.0
15/09:30pm 25.7 21.4 -9.5 9 13.9 S 7 11 4 6 1016.6 - 0.0
15/09:00pm 27.0 22.2 -10.0 8 14.7 S 9 11 5 6 1016.3 - 0.0
15/08:30pm 27.8 23.5 -9.4 8 15.0 SSE 7 11 4 6 1016.0 - 0.0
15/08:00pm 29.4 24.6 -9.9 7 16.0 SSE 9 11 5 6 1015.4 - 0.0
15/07:30pm 30.6 25.4 -11.0 6 16.8 SSE 11 19 6 10 1015.1 - 0.0
15/07:00pm 31.9 26.0 -10.1 6 17.4 SSE 15 20 8 11 1014.6 - 0.0
15/06:30pm 32.9 26.5 -11.7 5 18.2 SSE 17 24 9 13 1014.3 - 0.0
15/06:00pm 33.4 26.6 -11.3 5 18.4 SSE 19 32 10 17 1014.1 - 0.0
15/05:30pm 33.5 26.7 -11.2 5 18.4 SSE 19 32 10 17 1014.0 - 0.0
15/05:00pm 33.9 27.7 -8.7 6 18.4 SSE 17 24 9 13 1013.9 - 0.0
15/04:30pm 34.5 28.2 -10.6 5 19.0 S 17 30 9 16 1013.9 - 0.0
15/04:00pm 35.2 29.3 -10.1 5 19.3 SSE 15 28 8 15 1013.9 - 0.0
15/03:30pm 34.5 28.7 -8.2 6 18.7 SE 15 32 8 17 1014.1 - 0.0
15/03:00pm 33.8 27.6 -8.7 6 18.3 ESE 17 28 9 15 1014.4 - 0.0
15/02:30pm 33.1 26.9 -9.2 6 18.0 SSE 17 32 9 17 1014.8 - 0.0
15/01:00pm 33.1 27.8 -7.3 7 17.7 SE 13 30 7 16 1016.3 - 0.0
15/12:30pm 31.8 26.4 -8.2 7 17.1 SSE 13 26 7 14 1016.8 - 0.0
15/04:00am 18.6 14.4 -4.1 21 9.3 SSE 9 11 5 6 1016.4 - 0.0
15/03:30am 19.1 15.2 -4.4 20 9.6 SSE 7 9 4 5 1016.3 - 0.0
15/03:00am 19.4 15.2 -4.1 20 9.7 SSE 9 11 5 6 1016.4 - 0.0
15/02:30am 19.8 15.5 -4.5 19 10.0 SSE 9 11 5 6 1016.5 - 0.0
15/02:00am 20.8 16.5 -4.4 18 10.5 SSE 9 13 5 7 1016.7 - 0.0
15/01:30am 21.2 16.5 -4.8 17 10.7 SSE 11 15 6 8 1016.8 - 0.0
15/01:00am 21.2 17.0 -4.0 18 10.6 SSE 9 13 5 7 1017.0 - 0.0
15/12:30am 21.8 17.6 -4.3 17 10.9 SSE 9 13 5 7 1017.1 - 0.0
15/12:00am 21.9 17.7 -4.2 17 11.0 S 9 11 5 6 1017.1 - 0.0
 
Date/Time
CST
Temp
°C
App
Temp
°C
Dew
Point
°C
Rel
Hum
%
Delta-T
°C
Wind Press
QNH
hPa
Press
MSL
hPa
Rain since
9am
mm
Dir  Spd
km/h
Gust
km/h
Spd
kts
Gust
kts
14/11:30pm 22.6 18.3 -4.5 16 11.4 SSE 9 13 5 7 1017.1 - 0.0

Other Formats:

Comma delimited format used in spreadsheet applications
http://www.bom.gov.au/fwo/IDD60801/IDD60801.94327.axf

JavaScript Object Notation format (JSON) in row-major order
http://www.bom.gov.au/fwo/IDD60801/IDD60801.94327.json